This is the latest recevied weather packets stored in our database for station/object EA5XQ-13. If no packets are shown the sender has not sent any weather packets the latest 10 day(s).
| Time | Temp. | Humidity | Pressure | Rain* | Wind** | Luminosity | Snow |
|---|---|---|---|---|---|---|---|
| 1788372603 | 26.67° C | 85% | 1017.4 hPa | 0 mm | - | - | - |
| 1788370503 | 27.22° C | 85% | 1017.6 hPa | 0 mm | - | - | - |
| 1788370203 | 27.22° C | 85% | 1017.6 hPa | 0 mm | - | - | - |
| 1788369903 | 27.22° C | 84% | 1017.5 hPa | 0 mm | - | - | - |
| 1788368703 | 60° C | 1% | 1017.6 hPa | 0 mm | - | - | - |
| 1787904903 | 26.11° C | 42% | 1015.6 hPa | 0 mm | - | - | - |
| 1787904603 | 26.11° C | 42% | 1015.9 hPa | 0 mm | - | - | - |
| 1787904304 | 26.11° C | 42% | 1015.9 hPa | 0 mm | - | - | - |
| 1787904003 | 26.11° C | 42% | 1016.1 hPa | 0 mm | - | - | - |
| 1787902203 | 26.11° C | 43% | 1015.8 hPa | 0 mm | - | - | - |
| 1787901904 | 26.11° C | 43% | 1015.6 hPa | 0 mm | - | - | - |
| 1787901604 | 26.11° C | 43% | 1015.6 hPa | 0 mm | - | - | - |
| 1787901304 | 25.56° C | 42% | 1015.3 hPa | 0 mm | - | - | - |
| 1787901003 | 26.11° C | 41% | 1015.1 hPa | 0 mm | - | - | - |
| 1787900703 | 26.11° C | 41% | 1014.9 hPa | 0 mm | - | - | - |
| 1787900403 | 26.11° C | 41% | 1014.6 hPa | 0 mm | - | - | - |
| 1787900104 | 26.11° C | 41% | 1014.6 hPa | 0 mm | - | - | - |
| 1787899804 | 26.11° C | 41% | 1014.6 hPa | 0 mm | - | - | - |
| 1787897703 | 25° C | 44% | 1014.2 hPa | 0 mm | - | - | - |
| 1787897403 | 25° C | 44% | 1014.2 hPa | 0 mm | - | - | - |
| 1787897104 | 25° C | 44% | 1014.1 hPa | 0 mm | - | - | - |
| 1787896803 | 25° C | 43% | 1014.1 hPa | 0 mm | - | - | - |
| 1787896503 | 25° C | 43% | 1013.9 hPa | 0 mm | - | - | - |
| 1787896203 | 25° C | 44% | 1014 hPa | 0 mm | - | - | - |
| 1787895903 | 25° C | 44% | 1013.7 hPa | 0 mm | - | - | - |
* Rain latest hour (hover to see other rain measurements)
** Current wind speed in m/s (hover to see current wind gust speed)